sensor_id;sensor_type;location;lat;lon;timestamp;P1;durP1;ratioP1;P2;durP2;ratioP2
70814;SDS011;58428;49.478;10.986;2022-11-11T00:01:34;15.40;;;7.97;;
70814;SDS011;58428;49.478;10.986;2022-11-11T00:04:00;17.95;;;8.35;;
70814;SDS011;58428;49.478;10.986;2022-11-11T00:06:25;18.10;;;8.80;;
70814;SDS011;58428;49.478;10.986;2022-11-11T00:08:57;15.32;;;7.85;;
70814;SDS011;58428;49.478;10.986;2022-11-11T00:11:23;16.52;;;8.90;;
70814;SDS011;58428;49.478;10.986;2022-11-11T00:13:49;17.88;;;8.65;;
70814;SDS011;58428;49.478;10.986;2022-11-11T00:16:17;14.10;;;7.72;;
70814;SDS011;58428;49.478;10.986;2022-11-11T00:18:44;16.77;;;7.53;;
70814;SDS011;58428;49.478;10.986;2022-11-11T00:21:28;14.60;;;7.88;;
70814;SDS011;58428;49.478;10.986;2022-11-11T00:24:00;19.48;;;7.95;;
70814;SDS011;58428;49.478;10.986;2022-11-11T00:26:45;17.35;;;7.68;;
70814;SDS011;58428;49.478;10.986;2022-11-11T00:29:10;15.68;;;7.40;;
70814;SDS011;58428;49.478;10.986;2022-11-11T00:31:37;18.10;;;7.07;;
70814;SDS011;58428;49.478;10.986;2022-11-11T00:36:50;15.35;;;6.70;;
70814;SDS011;58428;49.478;10.986;2022-11-11T00:39:16;11.65;;;7.03;;
70814;SDS011;58428;49.478;10.986;2022-11-11T00:41:41;12.52;;;6.35;;
70814;SDS011;58428;49.478;10.986;2022-11-11T00:44:09;16.48;;;7.45;;
70814;SDS011;58428;49.478;10.986;2022-11-11T00:46:36;13.90;;;7.85;;
70814;SDS011;58428;49.478;10.986;2022-11-11T00:49:21;12.30;;;7.07;;
70814;SDS011;58428;49.478;10.986;2022-11-11T00:52:05;11.82;;;6.85;;
70814;SDS011;58428;49.478;10.986;2022-11-11T00:54:31;13.88;;;7.05;;
70814;SDS011;58428;49.478;10.986;2022-11-11T00:56:56;10.95;;;6.50;;
70814;SDS011;58428;49.478;10.986;2022-11-11T00:59:21;11.90;;;7.10;;
70814;SDS011;58428;49.478;10.986;2022-11-11T01:01:47;12.63;;;6.82;;
70814;SDS011;58428;49.478;10.986;2022-11-11T01:04:12;12.63;;;6.78;;
70814;SDS011;58428;49.478;10.986;2022-11-11T01:06:38;13.88;;;6.32;;
70814;SDS011;58428;49.478;10.986;2022-11-11T01:09:04;10.13;;;6.22;;
70814;SDS011;58428;49.478;10.986;2022-11-11T01:11:32;12.50;;;6.63;;
70814;SDS011;58428;49.478;10.986;2022-11-11T01:13:57;11.50;;;7.07;;
70814;SDS011;58428;49.478;10.986;2022-11-11T01:16:25;14.32;;;7.43;;
70814;SDS011;58428;49.478;10.986;2022-11-11T01:18:51;12.98;;;7.03;;
70814;SDS011;58428;49.478;10.986;2022-11-11T01:21:19;16.52;;;8.05;;
70814;SDS011;58428;49.478;10.986;2022-11-11T01:23:50;12.85;;;7.50;;
70814;SDS011;58428;49.478;10.986;2022-11-11T01:26:19;14.13;;;7.75;;
70814;SDS011;58428;49.478;10.986;2022-11-11T01:28:47;14.77;;;8.10;;
70814;SDS011;58428;49.478;10.986;2022-11-11T01:31:18;15.88;;;8.48;;
70814;SDS011;58428;49.478;10.986;2022-11-11T01:33:45;14.48;;;7.80;;
70814;SDS011;58428;49.478;10.986;2022-11-11T01:36:21;13.68;;;8.02;;
70814;SDS011;58428;49.478;10.986;2022-11-11T01:38:51;13.50;;;8.05;;
70814;SDS011;58428;49.478;10.986;2022-11-11T01:41:22;12.75;;;7.10;;
70814;SDS011;58428;49.478;10.986;2022-11-11T01:47:00;11.20;;;6.68;;
70814;SDS011;58428;49.478;10.986;2022-11-11T01:49:45;11.52;;;7.47;;
70814;SDS011;58428;49.478;10.986;2022-11-11T01:52:21;13.25;;;6.25;;
70814;SDS011;58428;49.478;10.986;2022-11-11T01:54:51;12.45;;;6.28;;
70814;SDS011;58428;49.478;10.986;2022-11-11T01:57:22;11.57;;;6.03;;
70814;SDS011;58428;49.478;10.986;2022-11-11T01:59:49;13.38;;;6.95;;
70814;SDS011;58428;49.478;10.986;2022-11-11T02:02:47;12.57;;;6.88;;
70814;SDS011;58428;49.478;10.986;2022-11-11T02:05:16;10.45;;;6.13;;
70814;SDS011;58428;49.478;10.986;2022-11-11T02:08:07;10.98;;;6.57;;
70814;SDS011;58428;49.478;10.986;2022-11-11T02:13:02;11.05;;;6.60;;
70814;SDS011;58428;49.478;10.986;2022-11-11T02:16:03;11.55;;;6.30;;
70814;SDS011;58428;49.478;10.986;2022-11-11T02:18:29;11.32;;;5.93;;
70814;SDS011;58428;49.478;10.986;2022-11-11T02:20:57;12.15;;;6.20;;
70814;SDS011;58428;49.478;10.986;2022-11-11T02:26:08;11.80;;;6.10;;
70814;SDS011;58428;49.478;10.986;2022-11-11T02:28:39;10.55;;;7.00;;
70814;SDS011;58428;49.478;10.986;2022-11-11T02:31:06;12.48;;;7.10;;
70814;SDS011;58428;49.478;10.986;2022-11-11T02:33:33;10.38;;;6.50;;
70814;SDS011;58428;49.478;10.986;2022-11-11T02:35:59;13.38;;;7.05;;
70814;SDS011;58428;49.478;10.986;2022-11-11T02:38:26;12.13;;;6.32;;
70814;SDS011;58428;49.478;10.986;2022-11-11T02:40:56;12.93;;;6.88;;
70814;SDS011;58428;49.478;10.986;2022-11-11T02:43:40;10.65;;;5.80;;
70814;SDS011;58428;49.478;10.986;2022-11-11T02:46:07;12.65;;;6.57;;
70814;SDS011;58428;49.478;10.986;2022-11-11T02:48:32;11.68;;;7.25;;
70814;SDS011;58428;49.478;10.986;2022-11-11T02:50:58;11.05;;;6.40;;
70814;SDS011;58428;49.478;10.986;2022-11-11T02:53:23;11.75;;;7.05;;
70814;SDS011;58428;49.478;10.986;2022-11-11T02:55:49;11.85;;;6.80;;
70814;SDS011;58428;49.478;10.986;2022-11-11T02:58:14;14.00;;;7.07;;
70814;SDS011;58428;49.478;10.986;2022-11-11T03:00:40;12.48;;;6.40;;
70814;SDS011;58428;49.478;10.986;2022-11-11T03:03:06;11.60;;;6.18;;
70814;SDS011;58428;49.478;10.986;2022-11-11T03:05:34;12.25;;;6.15;;
70814;SDS011;58428;49.478;10.986;2022-11-11T03:07:59;12.85;;;6.50;;
70814;SDS011;58428;49.478;10.986;2022-11-11T03:10:25;13.07;;;6.57;;
70814;SDS011;58428;49.478;10.986;2022-11-11T03:12:50;11.68;;;6.35;;
70814;SDS011;58428;49.478;10.986;2022-11-11T03:15:17;13.45;;;6.40;;
70814;SDS011;58428;49.478;10.986;2022-11-11T03:17:42;11.60;;;6.30;;
70814;SDS011;58428;49.478;10.986;2022-11-11T03:20:09;15.10;;;6.97;;
70814;SDS011;58428;49.478;10.986;2022-11-11T03:22:58;12.02;;;7.60;;
70814;SDS011;58428;49.478;10.986;2022-11-11T03:25:28;12.18;;;6.18;;
70814;SDS011;58428;49.478;10.986;2022-11-11T03:28:04;13.18;;;6.75;;
70814;SDS011;58428;49.478;10.986;2022-11-11T03:30:31;12.70;;;7.47;;
70814;SDS011;58428;49.478;10.986;2022-11-11T03:32:57;12.07;;;6.90;;
70814;SDS011;58428;49.478;10.986;2022-11-11T03:35:26;12.60;;;6.80;;
70814;SDS011;58428;49.478;10.986;2022-11-11T03:37:54;14.75;;;7.43;;
70814;SDS011;58428;49.478;10.986;2022-11-11T03:40:38;11.20;;;6.18;;
70814;SDS011;58428;49.478;10.986;2022-11-11T03:43:06;12.40;;;6.80;;
70814;SDS011;58428;49.478;10.986;2022-11-11T03:45:31;13.35;;;7.13;;
70814;SDS011;58428;49.478;10.986;2022-11-11T03:47:58;12.38;;;7.72;;
70814;SDS011;58428;49.478;10.986;2022-11-11T03:50:24;12.43;;;6.30;;
70814;SDS011;58428;49.478;10.986;2022-11-11T03:52:49;12.55;;;6.82;;
70814;SDS011;58428;49.478;10.986;2022-11-11T03:55:16;11.48;;;6.60;;
70814;SDS011;58428;49.478;10.986;2022-11-11T03:57:44;13.02;;;7.38;;
70814;SDS011;58428;49.478;10.986;2022-11-11T04:00:12;11.82;;;7.10;;
70814;SDS011;58428;49.478;10.986;2022-11-11T04:02:39;13.15;;;6.72;;
70814;SDS011;58428;49.478;10.986;2022-11-11T04:05:23;11.35;;;6.85;;
70814;SDS011;58428;49.478;10.986;2022-11-11T04:08:13;15.57;;;6.80;;
70814;SDS011;58428;49.478;10.986;2022-11-11T04:11:00;10.77;;;6.00;;
70814;SDS011;58428;49.478;10.986;2022-11-11T04:13:31;15.00;;;6.43;;
70814;SDS011;58428;49.478;10.986;2022-11-11T04:16:16;11.88;;;6.40;;
70814;SDS011;58428;49.478;10.986;2022-11-11T04:18:41;13.18;;;6.57;;
70814;SDS011;58428;49.478;10.986;2022-11-11T04:21:26;16.70;;;6.55;;
70814;SDS011;58428;49.478;10.986;2022-11-11T04:24:14;11.00;;;6.00;;
70814;SDS011;58428;49.478;10.986;2022-11-11T04:27:00;14.23;;;6.88;;
70814;SDS011;58428;49.478;10.986;2022-11-11T04:29:31;11.70;;;6.20;;
70814;SDS011;58428;49.478;10.986;2022-11-11T04:32:19;10.13;;;5.68;;
70814;SDS011;58428;49.478;10.986;2022-11-11T04:35:01;11.40;;;6.32;;
70814;SDS011;58428;49.478;10.986;2022-11-11T04:37:31;12.13;;;6.40;;
70814;SDS011;58428;49.478;10.986;2022-11-11T04:39:58;10.85;;;5.82;;
70814;SDS011;58428;49.478;10.986;2022-11-11T04:42:44;11.15;;;6.40;;
70814;SDS011;58428;49.478;10.986;2022-11-11T04:45:09;11.85;;;6.13;;
70814;SDS011;58428;49.478;10.986;2022-11-11T04:50:42;10.90;;;6.30;;
70814;SDS011;58428;49.478;10.986;2022-11-11T04:53:12;11.20;;;6.65;;
70814;SDS011;58428;49.478;10.986;2022-11-11T04:55:39;11.48;;;6.13;;
70814;SDS011;58428;49.478;10.986;2022-11-11T04:58:26;11.57;;;6.38;;
70814;SDS011;58428;49.478;10.986;2022-11-11T05:00:53;10.30;;;5.72;;
70814;SDS011;58428;49.478;10.986;2022-11-11T05:03:19;12.25;;;6.75;;
70814;SDS011;58428;49.478;10.986;2022-11-11T05:05:55;15.50;;;6.75;;
70814;SDS011;58428;49.478;10.986;2022-11-11T05:08:42;12.07;;;7.57;;
70814;SDS011;58428;49.478;10.986;2022-11-11T05:11:26;12.95;;;5.97;;
70814;SDS011;58428;49.478;10.986;2022-11-11T05:13:56;12.65;;;6.47;;
70814;SDS011;58428;49.478;10.986;2022-11-11T05:16:44;11.13;;;6.07;;
70814;SDS011;58428;49.478;10.986;2022-11-11T05:19:30;12.48;;;6.38;;
70814;SDS011;58428;49.478;10.986;2022-11-11T05:22:24;11.73;;;6.65;;
70814;SDS011;58428;49.478;10.986;2022-11-11T05:24:53;12.40;;;7.10;;
70814;SDS011;58428;49.478;10.986;2022-11-11T05:27:37;12.20;;;6.28;;
70814;SDS011;58428;49.478;10.986;2022-11-11T05:30:03;12.43;;;6.90;;
70814;SDS011;58428;49.478;10.986;2022-11-11T05:32:32;10.40;;;6.72;;
70814;SDS011;58428;49.478;10.986;2022-11-11T05:34:57;12.13;;;6.53;;
70814;SDS011;58428;49.478;10.986;2022-11-11T05:37:23;9.95;;;6.47;;
70814;SDS011;58428;49.478;10.986;2022-11-11T05:39:50;11.25;;;5.72;;
70814;SDS011;58428;49.478;10.986;2022-11-11T05:42:15;10.07;;;5.88;;
70814;SDS011;58428;49.478;10.986;2022-11-11T05:44:42;11.68;;;6.68;;
70814;SDS011;58428;49.478;10.986;2022-11-11T05:47:08;12.70;;;6.30;;
70814;SDS011;58428;49.478;10.986;2022-11-11T05:49:34;12.02;;;6.65;;
70814;SDS011;58428;49.478;10.986;2022-11-11T05:52:00;17.02;;;8.77;;
70814;SDS011;58428;49.478;10.986;2022-11-11T05:54:26;12.73;;;7.00;;
70814;SDS011;58428;49.478;10.986;2022-11-11T05:56:52;11.13;;;6.47;;
70814;SDS011;58428;49.478;10.986;2022-11-11T05:59:18;13.10;;;6.82;;
70814;SDS011;58428;49.478;10.986;2022-11-11T06:01:45;11.32;;;6.25;;
70814;SDS011;58428;49.478;10.986;2022-11-11T06:04:10;11.30;;;6.43;;
70814;SDS011;58428;49.478;10.986;2022-11-11T06:06:36;12.05;;;6.90;;
70814;SDS011;58428;49.478;10.986;2022-11-11T06:09:03;17.10;;;7.20;;
70814;SDS011;58428;49.478;10.986;2022-11-11T06:11:28;15.00;;;6.47;;
70814;SDS011;58428;49.478;10.986;2022-11-11T06:13:54;11.30;;;6.60;;
70814;SDS011;58428;49.478;10.986;2022-11-11T06:16:21;11.73;;;6.57;;
70814;SDS011;58428;49.478;10.986;2022-11-11T06:18:50;12.98;;;7.07;;
70814;SDS011;58428;49.478;10.986;2022-11-11T06:21:16;11.23;;;6.90;;
70814;SDS011;58428;49.478;10.986;2022-11-11T06:23:43;12.77;;;7.28;;
70814;SDS011;58428;49.478;10.986;2022-11-11T06:26:12;12.13;;;6.57;;
70814;SDS011;58428;49.478;10.986;2022-11-11T06:28:38;12.07;;;6.30;;
70814;SDS011;58428;49.478;10.986;2022-11-11T06:31:05;12.85;;;7.13;;
70814;SDS011;58428;49.478;10.986;2022-11-11T06:33:34;12.55;;;7.25;;
70814;SDS011;58428;49.478;10.986;2022-11-11T06:36:01;11.60;;;6.15;;
70814;SDS011;58428;49.478;10.986;2022-11-11T06:38:28;15.20;;;7.50;;
70814;SDS011;58428;49.478;10.986;2022-11-11T06:40:53;12.48;;;7.00;;
70814;SDS011;58428;49.478;10.986;2022-11-11T06:43:19;15.15;;;7.40;;
70814;SDS011;58428;49.478;10.986;2022-11-11T06:45:50;11.27;;;6.57;;
70814;SDS011;58428;49.478;10.986;2022-11-11T06:48:16;12.63;;;6.45;;
70814;SDS011;58428;49.478;10.986;2022-11-11T06:50:44;13.57;;;6.35;;
70814;SDS011;58428;49.478;10.986;2022-11-11T06:53:11;12.20;;;7.15;;
70814;SDS011;58428;49.478;10.986;2022-11-11T06:55:38;12.10;;;6.40;;
70814;SDS011;58428;49.478;10.986;2022-11-11T06:58:10;13.60;;;7.18;;
70814;SDS011;58428;49.478;10.986;2022-11-11T07:00:38;12.15;;;6.82;;
70814;SDS011;58428;49.478;10.986;2022-11-11T07:03:06;13.40;;;7.35;;
70814;SDS011;58428;49.478;10.986;2022-11-11T07:05:33;13.25;;;7.43;;
70814;SDS011;58428;49.478;10.986;2022-11-11T07:08:07;18.13;;;10.23;;
70814;SDS011;58428;49.478;10.986;2022-11-11T07:10:34;15.18;;;8.82;;
70814;SDS011;58428;49.478;10.986;2022-11-11T07:13:05;11.20;;;6.30;;
70814;SDS011;58428;49.478;10.986;2022-11-11T07:15:31;14.73;;;7.85;;
70814;SDS011;58428;49.478;10.986;2022-11-11T07:17:59;14.20;;;7.65;;
70814;SDS011;58428;49.478;10.986;2022-11-11T07:20:27;13.88;;;7.05;;
70814;SDS011;58428;49.478;10.986;2022-11-11T07:22:54;13.13;;;7.00;;
70814;SDS011;58428;49.478;10.986;2022-11-11T07:25:19;13.80;;;7.78;;
70814;SDS011;58428;49.478;10.986;2022-11-11T07:27:45;15.23;;;7.80;;
70814;SDS011;58428;49.478;10.986;2022-11-11T07:30:12;13.63;;;7.95;;
70814;SDS011;58428;49.478;10.986;2022-11-11T07:32:45;12.50;;;6.38;;
70814;SDS011;58428;49.478;10.986;2022-11-11T07:35:12;10.70;;;6.90;;
70814;SDS011;58428;49.478;10.986;2022-11-11T07:37:38;12.90;;;7.07;;
70814;SDS011;58428;49.478;10.986;2022-11-11T07:40:04;12.25;;;7.20;;
70814;SDS011;58428;49.478;10.986;2022-11-11T07:42:30;12.55;;;6.35;;
70814;SDS011;58428;49.478;10.986;2022-11-11T07:44:58;13.27;;;7.68;;
70814;SDS011;58428;49.478;10.986;2022-11-11T07:47:26;11.20;;;6.38;;
70814;SDS011;58428;49.478;10.986;2022-11-11T07:49:51;14.52;;;7.75;;
70814;SDS011;58428;49.478;10.986;2022-11-11T07:52:16;15.98;;;7.53;;
70814;SDS011;58428;49.478;10.986;2022-11-11T07:54:42;18.70;;;7.80;;
70814;SDS011;58428;49.478;10.986;2022-11-11T07:57:09;15.27;;;7.78;;
70814;SDS011;58428;49.478;10.986;2022-11-11T07:59:35;15.57;;;8.00;;
70814;SDS011;58428;49.478;10.986;2022-11-11T08:02:01;15.45;;;7.75;;
70814;SDS011;58428;49.478;10.986;2022-11-11T08:04:27;13.13;;;7.80;;
70814;SDS011;58428;49.478;10.986;2022-11-11T08:06:54;12.20;;;7.20;;
70814;SDS011;58428;49.478;10.986;2022-11-11T08:09:19;15.43;;;7.32;;
70814;SDS011;58428;49.478;10.986;2022-11-11T08:11:44;15.10;;;6.55;;
70814;SDS011;58428;49.478;10.986;2022-11-11T08:14:28;13.80;;;7.32;;
70814;SDS011;58428;49.478;10.986;2022-11-11T08:16:55;13.53;;;7.40;;
70814;SDS011;58428;49.478;10.986;2022-11-11T08:19:24;12.55;;;7.47;;
70814;SDS011;58428;49.478;10.986;2022-11-11T08:21:50;11.65;;;6.95;;
70814;SDS011;58428;49.478;10.986;2022-11-11T08:24:17;15.95;;;7.05;;
70814;SDS011;58428;49.478;10.986;2022-11-11T08:26:44;11.27;;;7.22;;
70814;SDS011;58428;49.478;10.986;2022-11-11T08:29:10;13.40;;;7.65;;
70814;SDS011;58428;49.478;10.986;2022-11-11T08:31:37;16.55;;;7.15;;
70814;SDS011;58428;49.478;10.986;2022-11-11T08:34:03;14.40;;;7.47;;
70814;SDS011;58428;49.478;10.986;2022-11-11T08:36:34;13.43;;;7.40;;
70814;SDS011;58428;49.478;10.986;2022-11-11T08:39:00;13.82;;;6.63;;
70814;SDS011;58428;49.478;10.986;2022-11-11T08:41:26;13.00;;;7.30;;
70814;SDS011;58428;49.478;10.986;2022-11-11T08:43:52;13.63;;;6.55;;
70814;SDS011;58428;49.478;10.986;2022-11-11T08:46:19;13.02;;;7.20;;
70814;SDS011;58428;49.478;10.986;2022-11-11T08:48:44;13.35;;;6.85;;
70814;SDS011;58428;49.478;10.986;2022-11-11T08:51:11;11.77;;;6.72;;
70814;SDS011;58428;49.478;10.986;2022-11-11T08:53:38;12.52;;;7.47;;
70814;SDS011;58428;49.478;10.986;2022-11-11T08:56:04;11.68;;;6.80;;
70814;SDS011;58428;49.478;10.986;2022-11-11T09:00:57;11.88;;;6.65;;
70814;SDS011;58428;49.478;10.986;2022-11-11T09:03:28;11.52;;;7.85;;
70814;SDS011;58428;49.478;10.986;2022-11-11T09:05:55;13.73;;;6.18;;
70814;SDS011;58428;49.478;10.986;2022-11-11T09:08:21;13.25;;;7.07;;
70814;SDS011;58428;49.478;10.986;2022-11-11T09:10:47;11.00;;;5.85;;
70814;SDS011;58428;49.478;10.986;2022-11-11T09:13:13;12.40;;;7.03;;
70814;SDS011;58428;49.478;10.986;2022-11-11T09:15:38;12.75;;;7.13;;
70814;SDS011;58428;49.478;10.986;2022-11-11T09:18:05;10.70;;;6.47;;
70814;SDS011;58428;49.478;10.986;2022-11-11T09:20:30;12.48;;;6.90;;
70814;SDS011;58428;49.478;10.986;2022-11-11T09:22:56;11.95;;;6.60;;
70814;SDS011;58428;49.478;10.986;2022-11-11T09:25:23;16.02;;;6.55;;
70814;SDS011;58428;49.478;10.986;2022-11-11T09:27:57;12.40;;;6.57;;
70814;SDS011;58428;49.478;10.986;2022-11-11T09:30:26;12.05;;;7.13;;
70814;SDS011;58428;49.478;10.986;2022-11-11T09:32:54;11.82;;;7.10;;
70814;SDS011;58428;49.478;10.986;2022-11-11T09:35:19;14.30;;;6.95;;
70814;SDS011;58428;49.478;10.986;2022-11-11T09:37:57;12.15;;;6.35;;
70814;SDS011;58428;49.478;10.986;2022-11-11T09:40:25;12.00;;;6.68;;
70814;SDS011;58428;49.478;10.986;2022-11-11T09:46:21;12.82;;;7.00;;
70814;SDS011;58428;49.478;10.986;2022-11-11T09:51:36;9.45;;;5.60;;
70814;SDS011;58428;49.478;10.986;2022-11-11T09:54:22;11.68;;;6.65;;
70814;SDS011;58428;49.478;10.986;2022-11-11T09:57:11;12.88;;;6.88;;
70814;SDS011;58428;49.478;10.986;2022-11-11T09:59:46;9.95;;;6.07;;
70814;SDS011;58428;49.478;10.986;2022-11-11T10:02:22;11.82;;;7.00;;
70814;SDS011;58428;49.478;10.986;2022-11-11T10:04:58;10.43;;;6.82;;
70814;SDS011;58428;49.478;10.986;2022-11-11T10:07:45;11.73;;;7.63;;
70814;SDS011;58428;49.478;10.986;2022-11-11T10:13:31;11.93;;;6.93;;
70814;SDS011;58428;49.478;10.986;2022-11-11T10:21:45;10.65;;;7.05;;
70814;SDS011;58428;49.478;10.986;2022-11-11T10:24:28;12.00;;;6.95;;
70814;SDS011;58428;49.478;10.986;2022-11-11T10:27:14;11.43;;;7.38;;
70814;SDS011;58428;49.478;10.986;2022-11-11T10:29:45;14.07;;;7.22;;
70814;SDS011;58428;49.478;10.986;2022-11-11T10:32:17;14.05;;;7.07;;
70814;SDS011;58428;49.478;10.986;2022-11-11T10:34:43;10.30;;;6.43;;
70814;SDS011;58428;49.478;10.986;2022-11-11T10:42:42;10.68;;;6.35;;
70814;SDS011;58428;49.478;10.986;2022-11-11T10:45:26;21.58;;;9.45;;
70814;SDS011;58428;49.478;10.986;2022-11-11T10:48:02;12.15;;;6.82;;
70814;SDS011;58428;49.478;10.986;2022-11-11T10:50:34;9.85;;;6.63;;
70814;SDS011;58428;49.478;10.986;2022-11-11T10:56:17;10.80;;;6.40;;
70814;SDS011;58428;49.478;10.986;2022-11-11T10:58:52;10.85;;;6.13;;
70814;SDS011;58428;49.478;10.986;2022-11-11T11:01:37;10.30;;;5.68;;
70814;SDS011;58428;49.478;10.986;2022-11-11T11:04:09;10.10;;;6.38;;
70814;SDS011;58428;49.478;10.986;2022-11-11T11:07:02;11.50;;;6.10;;
70814;SDS011;58428;49.478;10.986;2022-11-11T11:15:25;12.88;;;6.47;;
70814;SDS011;58428;49.478;10.986;2022-11-11T11:20:27;11.75;;;6.25;;
70814;SDS011;58428;49.478;10.986;2022-11-11T11:22:55;9.20;;;5.68;;
70814;SDS011;58428;49.478;10.986;2022-11-11T11:25:25;9.98;;;5.05;;
70814;SDS011;58428;49.478;10.986;2022-11-11T11:28:12;9.60;;;5.53;;
70814;SDS011;58428;49.478;10.986;2022-11-11T11:30:52;8.15;;;5.10;;
70814;SDS011;58428;49.478;10.986;2022-11-11T11:33:24;10.43;;;5.30;;
70814;SDS011;58428;49.478;10.986;2022-11-11T11:35:50;8.13;;;5.07;;
70814;SDS011;58428;49.478;10.986;2022-11-11T11:38:17;9.35;;;4.60;;
70814;SDS011;58428;49.478;10.986;2022-11-11T11:43:25;9.15;;;4.68;;
70814;SDS011;58428;49.478;10.986;2022-11-11T11:46:03;7.28;;;5.05;;
70814;SDS011;58428;49.478;10.986;2022-11-11T11:56:45;7.60;;;4.72;;
70814;SDS011;58428;49.478;10.986;2022-11-11T12:01:50;6.80;;;4.18;;
70814;SDS011;58428;49.478;10.986;2022-11-11T12:04:42;7.45;;;4.22;;
70814;SDS011;58428;49.478;10.986;2022-11-11T12:12:58;7.72;;;4.55;;
70814;SDS011;58428;49.478;10.986;2022-11-11T12:15:33;8.60;;;4.72;;
70814;SDS011;58428;49.478;10.986;2022-11-11T12:18:16;8.10;;;3.80;;
70814;SDS011;58428;49.478;10.986;2022-11-11T12:20:56;6.53;;;3.35;;
70814;SDS011;58428;49.478;10.986;2022-11-11T12:23:49;6.22;;;3.72;;
70814;SDS011;58428;49.478;10.986;2022-11-11T12:26:34;6.85;;;3.58;;
70814;SDS011;58428;49.478;10.986;2022-11-11T12:35:03;7.72;;;3.63;;
70814;SDS011;58428;49.478;10.986;2022-11-11T12:45:49;10.02;;;4.47;;
70814;SDS011;58428;49.478;10.986;2022-11-11T12:55:12;6.60;;;3.70;;
70814;SDS011;58428;49.478;10.986;2022-11-11T13:05:35;7.32;;;3.00;;
70814;SDS011;58428;49.478;10.986;2022-11-11T13:10:43;11.00;;;3.88;;
70814;SDS011;58428;49.478;10.986;2022-11-11T13:15:59;7.07;;;4.00;;
70814;SDS011;58428;49.478;10.986;2022-11-11T13:18:29;6.70;;;3.47;;
70814;SDS011;58428;49.478;10.986;2022-11-11T13:21:09;6.93;;;3.50;;
70814;SDS011;58428;49.478;10.986;2022-11-11T13:23:40;7.82;;;4.45;;
70814;SDS011;58428;49.478;10.986;2022-11-11T13:26:21;7.20;;;3.20;;
70814;SDS011;58428;49.478;10.986;2022-11-11T13:29:16;6.75;;;3.20;;
70814;SDS011;58428;49.478;10.986;2022-11-11T13:32:02;7.45;;;3.00;;
70814;SDS011;58428;49.478;10.986;2022-11-11T13:34:33;7.03;;;3.22;;
70814;SDS011;58428;49.478;10.986;2022-11-11T13:37:00;6.57;;;3.15;;
70814;SDS011;58428;49.478;10.986;2022-11-11T13:39:32;7.57;;;3.28;;
70814;SDS011;58428;49.478;10.986;2022-11-11T13:42:02;6.85;;;3.38;;
70814;SDS011;58428;49.478;10.986;2022-11-11T13:44:30;6.85;;;3.13;;
70814;SDS011;58428;49.478;10.986;2022-11-11T13:47:16;7.85;;;3.40;;
70814;SDS011;58428;49.478;10.986;2022-11-11T13:49:54;6.13;;;3.17;;
70814;SDS011;58428;49.478;10.986;2022-11-11T13:52:33;8.07;;;3.85;;
70814;SDS011;58428;49.478;10.986;2022-11-11T13:55:05;6.97;;;3.25;;
70814;SDS011;58428;49.478;10.986;2022-11-11T13:57:48;5.85;;;3.30;;
70814;SDS011;58428;49.478;10.986;2022-11-11T14:05:43;6.88;;;3.08;;
70814;SDS011;58428;49.478;10.986;2022-11-11T14:13:49;6.93;;;3.17;;
70814;SDS011;58428;49.478;10.986;2022-11-11T14:24:48;8.48;;;3.15;;
70814;SDS011;58428;49.478;10.986;2022-11-11T14:27:15;6.78;;;3.25;;
70814;SDS011;58428;49.478;10.986;2022-11-11T14:29:47;6.60;;;3.40;;
70814;SDS011;58428;49.478;10.986;2022-11-11T14:35:55;6.15;;;3.55;;
70814;SDS011;58428;49.478;10.986;2022-11-11T14:41:51;6.95;;;3.45;;
70814;SDS011;58428;49.478;10.986;2022-11-11T14:49:56;8.52;;;3.60;;
70814;SDS011;58428;49.478;10.986;2022-11-11T14:52:32;7.68;;;3.15;;
70814;SDS011;58428;49.478;10.986;2022-11-11T15:00:08;7.20;;;4.10;;
70814;SDS011;58428;49.478;10.986;2022-11-11T15:02:37;7.88;;;4.30;;
70814;SDS011;58428;49.478;10.986;2022-11-11T15:05:15;7.78;;;4.40;;
70814;SDS011;58428;49.478;10.986;2022-11-11T15:08:09;7.90;;;3.75;;
70814;SDS011;58428;49.478;10.986;2022-11-11T15:10:56;6.70;;;3.60;;
70814;SDS011;58428;49.478;10.986;2022-11-11T15:25:44;9.38;;;5.22;;
70814;SDS011;58428;49.478;10.986;2022-11-11T15:34:28;11.15;;;5.00;;
70814;SDS011;58428;49.478;10.986;2022-11-11T15:37:18;10.15;;;5.20;;
70814;SDS011;58428;49.478;10.986;2022-11-11T15:39:47;10.38;;;6.13;;
70814;SDS011;58428;49.478;10.986;2022-11-11T15:45:13;8.68;;;4.90;;
70814;SDS011;58428;49.478;10.986;2022-11-11T15:47:44;14.43;;;7.05;;
70814;SDS011;58428;49.478;10.986;2022-11-11T15:50:32;13.68;;;5.68;;
70814;SDS011;58428;49.478;10.986;2022-11-11T15:53:01;12.70;;;5.43;;
70814;SDS011;58428;49.478;10.986;2022-11-11T15:55:29;9.50;;;4.38;;
70814;SDS011;58428;49.478;10.986;2022-11-11T16:00:34;9.63;;;4.82;;
70814;SDS011;58428;49.478;10.986;2022-11-11T16:03:01;19.52;;;7.78;;
70814;SDS011;58428;49.478;10.986;2022-11-11T16:05:28;12.02;;;5.78;;
70814;SDS011;58428;49.478;10.986;2022-11-11T16:07:56;10.45;;;5.07;;
70814;SDS011;58428;49.478;10.986;2022-11-11T16:13:03;12.20;;;5.47;;
70814;SDS011;58428;49.478;10.986;2022-11-11T16:15:46;13.18;;;5.93;;
70814;SDS011;58428;49.478;10.986;2022-11-11T16:18:20;11.93;;;5.35;;
70814;SDS011;58428;49.478;10.986;2022-11-11T16:21:00;12.30;;;6.15;;
70814;SDS011;58428;49.478;10.986;2022-11-11T16:26:15;12.70;;;6.28;;
70814;SDS011;58428;49.478;10.986;2022-11-11T16:28:53;12.13;;;5.25;;
70814;SDS011;58428;49.478;10.986;2022-11-11T16:33:53;12.45;;;6.70;;
70814;SDS011;58428;49.478;10.986;2022-11-11T16:36:19;11.30;;;5.70;;
70814;SDS011;58428;49.478;10.986;2022-11-11T16:38:44;12.00;;;6.45;;
70814;SDS011;58428;49.478;10.986;2022-11-11T16:43:58;28.67;;;14.90;;
70814;SDS011;58428;49.478;10.986;2022-11-11T16:49:12;34.88;;;13.52;;
70814;SDS011;58428;49.478;10.986;2022-11-11T16:51:44;19.88;;;10.25;;
70814;SDS011;58428;49.478;10.986;2022-11-11T16:54:12;22.02;;;11.18;;
70814;SDS011;58428;49.478;10.986;2022-11-11T16:56:48;20.60;;;11.45;;
70814;SDS011;58428;49.478;10.986;2022-11-11T16:59:36;19.42;;;8.68;;
70814;SDS011;58428;49.478;10.986;2022-11-11T17:02:23;15.48;;;8.32;;
70814;SDS011;58428;49.478;10.986;2022-11-11T17:04:55;13.98;;;7.82;;
70814;SDS011;58428;49.478;10.986;2022-11-11T17:07:29;11.05;;;6.40;;
70814;SDS011;58428;49.478;10.986;2022-11-11T17:10:08;12.98;;;6.72;;
70814;SDS011;58428;49.478;10.986;2022-11-11T17:12:39;10.77;;;5.97;;
70814;SDS011;58428;49.478;10.986;2022-11-11T17:15:13;12.95;;;6.35;;
70814;SDS011;58428;49.478;10.986;2022-11-11T17:17:40;11.68;;;6.68;;
70814;SDS011;58428;49.478;10.986;2022-11-11T17:20:08;11.40;;;7.13;;
70814;SDS011;58428;49.478;10.986;2022-11-11T17:22:44;16.17;;;10.65;;
70814;SDS011;58428;49.478;10.986;2022-11-11T17:25:15;17.80;;;9.57;;
70814;SDS011;58428;49.478;10.986;2022-11-11T17:27:41;16.52;;;9.23;;
70814;SDS011;58428;49.478;10.986;2022-11-11T17:30:09;16.35;;;8.63;;
70814;SDS011;58428;49.478;10.986;2022-11-11T17:32:36;15.20;;;9.10;;
70814;SDS011;58428;49.478;10.986;2022-11-11T17:35:02;15.18;;;8.48;;
70814;SDS011;58428;49.478;10.986;2022-11-11T17:37:28;18.73;;;8.32;;
70814;SDS011;58428;49.478;10.986;2022-11-11T17:39:58;20.73;;;10.30;;
70814;SDS011;58428;49.478;10.986;2022-11-11T17:42:26;19.67;;;10.38;;
70814;SDS011;58428;49.478;10.986;2022-11-11T17:44:52;23.20;;;11.25;;